Flagstaff, Arizona
Current Conditions -  °F | °C
As of 12:57 AM on Thursday 23 Oct 2014 (Local Time) from KFLG Reporting Station
Clear Clear  
Wind Chill: 37°   Ceiling: Unl
Heat Index: 37°   Visibility: 9mi
Dew Point: 30°   Wind: 0mph
Humidity: 76%   Direction: NA
Pressure: 30.31"   Gusts: NA
Location:  35.2°N, 111.65°W
Report Text: KFLG 230757Z AUTO 00000KT 9SM CLR 03/M01 A3031 RMK AO2 SLP196 T00281011 TSNO
Loading
Personal Weather Stations






























Interactive Weather Map
Tropical Storm Tracking
New forecast layout! Learn more

10-Day Weather Forecast

Advertisements
Track Severe Weather on mobile